createdAt,value
2018-07-10T00:00:07.839Z,101849.67
2018-07-10T00:03:23.496Z,101851.23
2018-07-10T00:07:06.306Z,101847.14
2018-07-10T00:10:15.946Z,101847.68
2018-07-10T00:12:44.863Z,101837.63
2018-07-10T00:15:13.627Z,101839.33
2018-07-10T00:17:42.540Z,101832.97
2018-07-10T00:20:11.533Z,101841.97
2018-07-10T00:22:40.440Z,101839.14
2018-07-10T00:25:09.290Z,101831.34
2018-07-10T00:27:38.155Z,101820.20
2018-07-10T00:30:06.980Z,101817.94
2018-07-10T00:32:35.948Z,101813.95
2018-07-10T00:35:04.989Z,101808.47
2018-07-10T00:37:33.952Z,101805.73
2018-07-10T00:40:02.936Z,101808.47
2018-07-10T00:42:31.828Z,101809.66
2018-07-10T00:45:00.871Z,101807.37
2018-07-10T00:47:29.811Z,101809.03
2018-07-10T00:49:58.543Z,101815.09
2018-07-10T00:52:33.595Z,101819.77
2018-07-10T00:55:03.059Z,101812.88
2018-07-10T00:57:32.823Z,101796.33
2018-07-10T01:00:03.122Z,101801.38
2018-07-10T01:02:32.123Z,101797.44
2018-07-10T01:05:00.984Z,101797.32
2018-07-10T01:07:29.884Z,101785.69
2018-07-10T01:09:58.733Z,101776.72
2018-07-10T01:12:27.624Z,101774.45
2018-07-10T01:14:56.790Z,101768.76
2018-07-10T01:17:25.707Z,101773.92
2018-07-10T01:19:54.723Z,101772.75
2018-07-10T01:22:23.466Z,101760.98
2018-07-10T01:24:52.437Z,101764.26
2018-07-10T01:27:21.762Z,101762.14
2018-07-10T01:29:51.201Z,101760.95
2018-07-10T01:32:20.284Z,101767.50
2018-07-10T01:34:49.251Z,101761.48
2018-07-10T01:37:18.280Z,101758.03
2018-07-10T01:39:46.977Z,101749.05
2018-07-10T01:42:15.898Z,101738.80
2018-07-10T01:44:44.807Z,101739.75
2018-07-10T01:47:13.719Z,101738.19
2018-07-10T01:49:42.692Z,101729.52
2018-07-10T01:52:11.691Z,101734.30
2018-07-10T01:54:40.646Z,101731.32
2018-07-10T01:57:09.712Z,101730.89
2018-07-10T01:59:38.676Z,101723.78
2018-07-10T02:02:07.640Z,101721.03
2018-07-10T02:04:37.761Z,101715.52
2018-07-10T02:07:06.427Z,101715.52
2018-07-10T02:09:35.679Z,101714.01
2018-07-10T02:12:04.517Z,101715.09
2018-07-10T02:14:33.483Z,101712.91
2018-07-10T02:17:02.384Z,101705.28
2018-07-10T02:19:31.406Z,101686.99
2018-07-10T02:22:00.504Z,101685.05
2018-07-10T02:24:29.484Z,101691.70
2018-07-10T02:26:58.453Z,101684.72
2018-07-10T02:29:27.759Z,101677.03
2018-07-10T02:31:56.631Z,101669.12
2018-07-10T02:34:25.567Z,101670.09
2018-07-10T02:36:54.447Z,101672.98
2018-07-10T02:39:23.455Z,101665.16
2018-07-10T02:41:52.756Z,101668.19
2018-07-10T02:44:21.774Z,101664.58
2018-07-10T02:46:50.868Z,101662.30
2018-07-10T02:49:21.216Z,101651.25
2018-07-10T02:51:56.099Z,101653.34
2018-07-10T02:54:27.524Z,101642.74
2018-07-10T02:56:57.370Z,101648.75
2018-07-10T02:59:34.328Z,101643.30
2018-07-10T03:02:04.762Z,101644.63
2018-07-10T03:04:35.664Z,101636.64
2018-07-10T03:07:04.680Z,101634.95
2018-07-10T03:09:34.099Z,101631.11
2018-07-10T03:12:03.835Z,101632.92
2018-07-10T03:14:32.768Z,101630.84
2018-07-10T03:17:02.139Z,101632.83
2018-07-10T03:19:31.932Z,101626.53
2018-07-10T03:22:01.090Z,101623.95
2018-07-10T03:24:30.094Z,101620.97
2018-07-10T03:26:59.195Z,101618.06
2018-07-10T03:29:28.143Z,101620.80
2018-07-10T03:31:57.239Z,101628.42
2018-07-10T03:34:25.838Z,101619.36
2018-07-10T03:36:54.661Z,101619.56
2018-07-10T03:39:23.591Z,101620.21
2018-07-10T03:41:52.538Z,101617.22
2018-07-10T03:44:21.334Z,101614.52
2018-07-10T03:46:50.323Z,101605.38
2018-07-10T03:49:19.285Z,101607.83
2018-07-10T03:51:48.506Z,101599.40
2018-07-10T03:54:17.487Z,101598.80
2018-07-10T03:56:46.924Z,101594.41
2018-07-10T03:59:15.903Z,101599.16
2018-07-10T04:01:44.912Z,101593.84
2018-07-10T04:04:14.618Z,101589.97
2018-07-10T04:06:45.637Z,101588.23
2018-07-10T04:09:14.652Z,101594.65
2018-07-10T04:11:48.011Z,101597.95
2018-07-10T04:14:21.838Z,101598.35
2018-07-10T04:16:50.941Z,101593.75
2018-07-10T04:19:19.980Z,101590.72
2018-07-10T04:21:55.787Z,101582.50
2018-07-10T04:24:25.059Z,101583.58
2018-07-10T04:27:08.194Z,101579.75
2018-07-10T04:30:17.156Z,101576.52
2018-07-10T04:32:46.170Z,101579.47
2018-07-10T04:35:18.738Z,101582.94
2018-07-10T04:37:50.372Z,101578.09
2018-07-10T04:40:20.257Z,101580.03
2018-07-10T04:43:00.027Z,101576.95
2018-07-10T04:45:41.155Z,101566.65
2018-07-10T04:48:28.070Z,101572.70
2018-07-10T04:51:37.136Z,101569.59
2018-07-10T04:54:29.398Z,101571.77
2018-07-10T04:57:07.415Z,101565.20
2018-07-10T04:59:36.707Z,101570.33
2018-07-10T05:02:06.593Z,101567.58
2018-07-10T05:04:35.776Z,101564.11
2018-07-10T05:07:09.403Z,101569.73
2018-07-10T05:09:39.975Z,101560.30
2018-07-10T05:12:09.177Z,101550.17
2018-07-10T05:14:43.488Z,101544.77
2018-07-10T05:17:14.563Z,101542.37
2018-07-10T05:19:43.562Z,101548.30
2018-07-10T05:22:12.651Z,101544.92
2018-07-10T05:24:41.659Z,101534.42
2018-07-10T05:27:11.136Z,101538.97
2018-07-10T05:29:40.136Z,101529.03
2018-07-10T05:32:10.544Z,101536.16
2018-07-10T05:34:40.464Z,101533.20
2018-07-10T05:37:12.447Z,101523.97
2018-07-10T05:39:47.268Z,101525.41
2018-07-10T05:42:16.227Z,101515.67
2018-07-10T05:44:46.391Z,101521.59
2018-07-10T05:47:15.478Z,101520.66
2018-07-10T05:49:44.526Z,101528.81
2018-07-10T05:52:13.260Z,101529.02
2018-07-10T05:54:44.797Z,101525.48
2018-07-10T05:57:13.708Z,101524.55
2018-07-10T05:59:42.727Z,101530.10
2018-07-10T06:02:11.759Z,101529.66
2018-07-10T06:04:40.741Z,101522.44
2018-07-10T06:07:09.682Z,101522.36
2018-07-10T06:09:38.720Z,101520.56
2018-07-10T06:12:07.731Z,101525.62
2018-07-10T06:14:36.680Z,101518.68
2018-07-10T06:17:06.193Z,101520.26
2018-07-10T06:19:35.264Z,101521.93
2018-07-10T06:22:04.343Z,101516.14
2018-07-10T06:24:33.073Z,101519.78
2018-07-10T06:27:06.496Z,101513.78
2018-07-10T06:29:54.672Z,101507.05
2018-07-10T06:32:23.919Z,101513.98
2018-07-10T06:35:02.175Z,101516.88
2018-07-10T06:37:32.440Z,101512.72
2018-07-10T06:40:06.395Z,101511.28
2018-07-10T06:42:52.291Z,101505.56
2018-07-10T06:45:27.953Z,101512.34
2018-07-10T06:47:56.970Z,101509.27
2018-07-10T06:50:26.223Z,101510.38
2018-07-10T06:52:55.799Z,101505.89
2018-07-10T06:55:24.669Z,101511.16
2018-07-10T06:57:57.350Z,101511.53
2018-07-10T07:00:27.151Z,101514.63
2018-07-10T07:02:56.227Z,101504.80
2018-07-10T07:05:25.146Z,101499.02
2018-07-10T07:07:54.181Z,101498.56
2018-07-10T07:10:24.300Z,101497.19
2018-07-10T07:12:53.239Z,101495.87
2018-07-10T07:15:22.592Z,101501.11
2018-07-10T07:17:52.744Z,101495.09
2018-07-10T07:20:22.498Z,101496.15
2018-07-10T07:22:51.754Z,101492.03
2018-07-10T07:25:20.638Z,101490.42
2018-07-10T07:27:49.591Z,101500.88
2018-07-10T07:30:18.571Z,101489.06
2018-07-10T07:32:48.226Z,101492.99
2018-07-10T07:35:17.179Z,101488.64
2018-07-10T07:37:46.564Z,101498.84
2018-07-10T07:40:15.548Z,101490.34
2018-07-10T07:42:44.455Z,101490.34
2018-07-10T07:45:19.851Z,101488.16
2018-07-10T07:47:49.438Z,101474.66
2018-07-10T07:50:19.285Z,101479.95
2018-07-10T07:52:48.244Z,101472.95
2018-07-10T07:55:17.248Z,101473.33
2018-07-10T07:57:46.117Z,101471.70
2018-07-10T08:00:14.838Z,101470.25
2018-07-10T08:02:43.750Z,101473.20
2018-07-10T08:05:12.820Z,101477.20
2018-07-10T08:07:41.735Z,101475.09
2018-07-10T08:10:10.564Z,101471.77
2018-07-10T08:12:39.575Z,101472.23
2018-07-10T08:15:08.595Z,101464.18
2018-07-10T08:17:37.564Z,101462.16
2018-07-10T08:20:06.765Z,101460.53
2018-07-10T08:22:35.851Z,101465.91
2018-07-10T08:25:05.562Z,101473.80
2018-07-10T08:27:36.891Z,101487.89
2018-07-10T08:30:06.152Z,101496.73
2018-07-10T08:32:37.092Z,101490.66
2018-07-10T08:35:06.145Z,101486.11
2018-07-10T08:37:35.222Z,101475.02
2018-07-10T08:40:04.133Z,101458.42
2018-07-10T08:42:32.924Z,101464.12
2018-07-10T08:45:02.827Z,101467.14
2018-07-10T08:47:31.895Z,101475.59
2018-07-10T08:50:00.673Z,101475.59
2018-07-10T08:52:29.656Z,101473.58
2018-07-10T08:54:58.683Z,101471.16
2018-07-10T08:57:27.920Z,101478.08
2018-07-10T08:59:56.757Z,101472.43
2018-07-10T09:02:25.688Z,101468.64
2018-07-10T09:04:54.692Z,101460.16
2018-07-10T09:07:23.688Z,101463.63
2018-07-10T09:09:52.621Z,101450.52
2018-07-10T09:12:21.512Z,101452.88
2018-07-10T09:14:50.504Z,101450.73
2018-07-10T09:17:20.457Z,101449.13
2018-07-10T09:19:49.491Z,101453.50
2018-07-10T09:22:18.239Z,101447.52
2018-07-10T09:24:52.189Z,101454.16
2018-07-10T09:27:22.484Z,101447.75
2018-07-10T09:29:51.456Z,101442.05
2018-07-10T09:32:27.191Z,101447.35
2018-07-10T09:34:57.592Z,101456.01
2018-07-10T09:37:34.789Z,101456.21
2018-07-10T09:40:09.446Z,101462.02
2018-07-10T09:42:44.748Z,101453.72
2018-07-10T09:45:19.786Z,101458.54
2018-07-10T09:47:48.806Z,101457.09
2018-07-10T09:50:17.828Z,101453.19
2018-07-10T09:52:46.768Z,101458.18
2018-07-10T09:55:15.547Z,101457.40
2018-07-10T09:57:44.515Z,101456.98
2018-07-10T10:00:13.495Z,101455.52
2018-07-10T10:02:42.476Z,101455.80
2018-07-10T10:05:11.566Z,101464.39
2018-07-10T10:07:40.489Z,101465.59
2018-07-10T10:10:09.442Z,101463.07
2018-07-10T10:12:38.434Z,101455.25
2018-07-10T10:15:07.285Z,101459.70
2018-07-10T10:17:36.306Z,101460.91
2018-07-10T10:20:05.143Z,101457.80
2018-07-10T10:22:35.653Z,101459.02
2018-07-10T10:25:04.518Z,101457.22
2018-07-10T10:27:33.302Z,101469.78
2018-07-10T10:30:02.145Z,101464.39
2018-07-10T10:32:31.414Z,101471.09
2018-07-10T10:35:00.302Z,101464.45
2018-07-10T10:37:29.276Z,101462.33
2018-07-10T10:39:59.553Z,101461.53
2018-07-10T10:42:28.877Z,101470.02
2018-07-10T10:45:00.638Z,101465.94
2018-07-10T10:47:31.211Z,101476.63
2018-07-10T10:50:01.080Z,101476.47
2018-07-10T10:52:30.113Z,101475.14
2018-07-10T10:54:58.880Z,101479.34
2018-07-10T10:57:35.694Z,101476.69
2018-07-10T11:00:05.182Z,101472.03
2018-07-10T11:02:34.181Z,101480.23
2018-07-10T11:05:03.507Z,101473.53
2018-07-10T11:07:34.115Z,101479.48
2018-07-10T11:10:03.021Z,101481.68
2018-07-10T11:12:32.817Z,101484.66
2018-07-10T11:15:03.595Z,101490.56
2018-07-10T11:17:44.637Z,101482.28
2018-07-10T11:20:29.014Z,101485.47
2018-07-10T11:23:06.304Z,101484.55
2018-07-10T11:25:41.588Z,101488.78
2018-07-10T11:28:13.216Z,101484.42
2018-07-10T11:30:42.214Z,101482.62
2018-07-10T11:33:11.589Z,101487.73
2018-07-10T11:35:40.624Z,101496.22
2018-07-10T11:38:13.745Z,101488.38
2018-07-10T11:40:45.568Z,101496.98
2018-07-10T11:43:14.587Z,101503.98
2018-07-10T11:45:49.743Z,101509.16
2018-07-10T11:48:18.583Z,101504.14
2018-07-10T11:50:47.544Z,101497.13
2018-07-10T11:53:16.868Z,101499.85
2018-07-10T11:55:45.848Z,101516.48
2018-07-10T11:58:14.832Z,101506.70
2018-07-10T12:00:43.886Z,101512.13
2018-07-10T12:03:12.808Z,101509.76
2018-07-10T12:05:42.259Z,101512.44
2018-07-10T12:08:11.187Z,101516.00
2018-07-10T12:10:40.201Z,101507.78
2018-07-10T12:13:09.130Z,101515.08
2018-07-10T12:15:38.120Z,101527.05
2018-07-10T12:18:07.099Z,101529.79
2018-07-10T12:20:37.632Z,101524.11
2018-07-10T12:23:08.656Z,101532.47
2018-07-10T12:25:41.671Z,101529.13
2018-07-10T12:28:11.848Z,101533.25
2018-07-10T12:30:40.890Z,101526.09
2018-07-10T12:33:10.041Z,101526.85
2018-07-10T12:35:39.363Z,101526.88
2018-07-10T12:38:08.211Z,101532.56
2018-07-10T12:40:37.074Z,101533.27
2018-07-10T12:43:05.999Z,101527.66
2018-07-10T12:45:41.084Z,101532.55
2018-07-10T12:48:09.803Z,101524.34
2018-07-10T12:50:38.798Z,101537.04
2018-07-10T12:53:07.724Z,101542.53
2018-07-10T12:55:37.375Z,101544.73
2018-07-10T12:58:06.552Z,101546.89
2018-07-10T13:00:38.427Z,101549.27
2018-07-10T13:03:09.912Z,101542.88
2018-07-10T13:05:49.146Z,101547.66
2018-07-10T13:08:18.443Z,101547.80
2018-07-10T13:10:47.403Z,101540.91
2018-07-10T13:13:16.539Z,101551.22
2018-07-10T13:15:45.472Z,101557.57
2018-07-10T13:18:15.799Z,101567.83
2018-07-10T13:20:44.736Z,101560.13
2018-07-10T13:23:13.461Z,101568.97
2018-07-10T13:25:42.572Z,101570.75
2018-07-10T13:28:11.598Z,101577.91
2018-07-10T13:30:40.447Z,101585.44
2018-07-10T13:33:09.548Z,101588.58
2018-07-10T13:35:38.511Z,101592.36
2018-07-10T13:38:07.695Z,101589.16
2018-07-10T13:40:37.304Z,101596.95
2018-07-10T13:43:06.106Z,101591.74
2018-07-10T13:45:40.923Z,101595.13
2018-07-10T13:48:10.043Z,101593.74
2018-07-10T13:50:39.038Z,101592.36
2018-07-10T13:53:08.080Z,101597.09
2018-07-10T13:55:37.051Z,101609.27
2018-07-10T13:58:11.109Z,101612.91
2018-07-10T14:01:13.433Z,101611.72
2018-07-10T14:03:42.457Z,101600.66
2018-07-10T14:06:11.357Z,101606.78
2018-07-10T14:08:40.379Z,101619.03
2018-07-10T14:11:09.647Z,101627.75
2018-07-10T14:13:38.632Z,101620.53
2018-07-10T14:16:07.568Z,101633.38
2018-07-10T14:18:36.344Z,101639.00
2018-07-10T14:21:06.885Z,101642.27
2018-07-10T14:23:36.443Z,101643.55
2018-07-10T14:26:05.543Z,101637.03
2018-07-10T14:28:34.780Z,101647.55
2018-07-10T14:31:03.707Z,101649.66
2018-07-10T14:33:32.716Z,101651.40
2018-07-10T14:36:01.740Z,101661.98
2018-07-10T14:38:31.029Z,101661.63
2018-07-10T14:41:05.943Z,101665.15
2018-07-10T14:43:37.962Z,101656.39
2018-07-10T14:46:19.180Z,101660.37
2018-07-10T14:48:54.367Z,101662.01
2018-07-10T14:51:31.432Z,101657.94
2018-07-10T14:54:00.375Z,101653.23
2018-07-10T14:56:29.463Z,101663.02
2018-07-10T14:58:58.281Z,101668.30
2018-07-10T15:01:27.235Z,101669.17
2018-07-10T15:03:56.372Z,101672.33
2018-07-10T15:06:25.239Z,101669.33
2018-07-10T15:08:54.243Z,101673.47
2018-07-10T15:11:23.252Z,101685.64
2018-07-10T15:14:01.239Z,101675.21
2018-07-10T15:16:35.511Z,101681.39
2018-07-10T15:19:04.803Z,101676.89
2018-07-10T15:21:33.828Z,101678.93
2018-07-10T15:24:04.057Z,101677.91
2018-07-10T15:26:33.597Z,101679.52
2018-07-10T15:29:02.641Z,101689.84
2018-07-10T15:31:31.775Z,101680.33
2018-07-10T15:34:00.943Z,101684.84
2018-07-10T15:36:29.874Z,101687.96
2018-07-10T15:38:58.652Z,101685.88
2018-07-10T15:41:29.777Z,101683.51
2018-07-10T15:43:58.690Z,101687.25
2018-07-10T15:46:27.540Z,101683.45
2018-07-10T15:48:56.741Z,101684.25
2018-07-10T15:51:25.968Z,101689.95
2018-07-10T15:53:54.907Z,101693.34
2018-07-10T15:56:23.843Z,101690.44
2018-07-10T15:58:52.920Z,101685.23
2018-07-10T16:01:21.831Z,101696.03
2018-07-10T16:03:50.947Z,101695.63
2018-07-10T16:06:19.946Z,101694.48
2018-07-10T16:08:49.313Z,101699.44
2018-07-10T16:11:18.304Z,101697.77
2018-07-10T16:13:47.780Z,101702.59
2018-07-10T16:16:19.107Z,101701.51
2018-07-10T16:18:55.862Z,101707.36
2018-07-10T16:21:32.540Z,101704.98
2018-07-10T16:24:03.304Z,101707.19
2018-07-10T16:26:32.320Z,101711.09
2018-07-10T16:29:06.893Z,101704.97
2018-07-10T16:31:37.152Z,101704.42
2018-07-10T16:34:06.221Z,101701.83
2018-07-10T16:36:35.180Z,101708.50
2018-07-10T16:39:04.256Z,101702.36
2018-07-10T16:41:39.011Z,101701.64
2018-07-10T16:44:08.013Z,101708.70
2018-07-10T16:46:37.115Z,101705.72
2018-07-10T16:49:15.983Z,101697.08
2018-07-10T16:51:54.977Z,101699.69
2018-07-10T16:54:24.251Z,101699.64
2018-07-10T16:56:53.167Z,101706.35
2018-07-10T16:59:22.210Z,101709.11
2018-07-10T17:01:51.544Z,101709.30
2018-07-10T17:04:20.517Z,101709.47
2018-07-10T17:06:49.436Z,101714.10
2018-07-10T17:09:18.546Z,101710.08
2018-07-10T17:11:47.723Z,101717.27
2018-07-10T17:14:16.564Z,101711.89
2018-07-10T17:16:45.359Z,101714.42
2018-07-10T17:19:14.081Z,101719.42
2018-07-10T17:21:43.260Z,101718.80
2018-07-10T17:24:12.904Z,101727.20
2018-07-10T17:26:41.871Z,101723.39
2018-07-10T17:29:12.076Z,101724.02
2018-07-10T17:31:41.149Z,101723.64
2018-07-10T17:34:10.376Z,101720.08
2018-07-10T17:36:39.523Z,101727.42
2018-07-10T17:39:08.490Z,101732.53
2018-07-10T17:41:37.571Z,101732.22
2018-07-10T17:44:10.652Z,101732.63
2018-07-10T17:46:39.941Z,101733.03
2018-07-10T17:49:08.661Z,101735.31
2018-07-10T17:51:37.885Z,101734.51
2018-07-10T17:54:06.855Z,101745.28
2018-07-10T17:56:36.110Z,101743.52
2018-07-10T17:59:07.130Z,101746.30
2018-07-10T18:01:36.704Z,101747.31
2018-07-10T18:04:06.075Z,101756.63
2018-07-10T18:06:35.541Z,101761.33
2018-07-10T18:09:05.267Z,101755.30
2018-07-10T18:11:34.503Z,101758.19
2018-07-10T18:14:03.506Z,101765.88
2018-07-10T18:16:33.994Z,101767.45
2018-07-10T18:19:04.923Z,101771.73
2018-07-10T18:21:34.851Z,101769.91
2018-07-10T18:24:04.088Z,101777.02
2018-07-10T18:26:33.335Z,101769.87
2018-07-10T18:29:02.300Z,101764.39
2018-07-10T18:31:31.115Z,101769.67
2018-07-10T18:34:00.149Z,101766.70
2018-07-10T18:36:29.165Z,101773.64
2018-07-10T18:38:58.385Z,101774.88
2018-07-10T18:41:27.708Z,101779.58
2018-07-10T18:43:56.614Z,101772.66
2018-07-10T18:46:25.545Z,101777.41
2018-07-10T18:48:54.909Z,101785.23
2018-07-10T18:51:23.862Z,101787.39
2018-07-10T18:53:52.809Z,101787.72
2018-07-10T18:56:22.492Z,101798.49
2018-07-10T18:59:03.752Z,101796.48
2018-07-10T19:01:56.119Z,101800.23
2018-07-10T19:04:54.919Z,101796.39
2018-07-10T19:07:25.236Z,101800.53
2018-07-10T19:09:54.256Z,101803.70
2018-07-10T19:12:23.246Z,101809.68
2018-07-10T19:14:52.427Z,101814.27
2018-07-10T19:17:32.188Z,101821.64
2018-07-10T19:20:07.387Z,101825.78
2018-07-10T19:23:22.814Z,101821.42
2018-07-10T19:25:52.103Z,101818.89
2018-07-10T19:28:21.075Z,101832.69
2018-07-10T19:31:04.953Z,101844.59
2018-07-10T19:33:34.045Z,101833.67
2018-07-10T19:36:03.021Z,101846.01
2018-07-10T19:38:32.435Z,101845.24
2018-07-10T19:41:01.427Z,101838.27
2018-07-10T19:43:30.752Z,101839.72
2018-07-10T19:46:00.053Z,101846.50
2018-07-10T19:48:29.137Z,101852.94
2018-07-10T19:50:58.107Z,101851.81
2018-07-10T19:53:27.736Z,101852.85
2018-07-10T19:55:56.696Z,101848.80
2018-07-10T19:58:33.951Z,101849.91
2018-07-10T20:01:28.099Z,101851.14
2018-07-10T20:04:18.152Z,101847.83
2018-07-10T20:07:53.131Z,101852.88
2018-07-10T20:10:35.022Z,101850.17
2018-07-10T20:13:47.134Z,101850.13
2018-07-10T20:16:39.293Z,101851.42
2018-07-10T20:19:47.508Z,101850.27
2018-07-10T20:22:28.379Z,101847.00
2018-07-10T20:25:10.801Z,101845.00
2018-07-10T20:27:52.636Z,101850.42
2018-07-10T20:31:37.461Z,101848.77
2018-07-10T20:35:21.399Z,101848.95
2018-07-10T20:37:50.801Z,101851.75
2018-07-10T20:40:32.384Z,101853.55
2018-07-10T20:43:21.055Z,101863.31
2018-07-10T20:45:56.731Z,101853.00
2018-07-10T20:48:59.894Z,101855.59
2018-07-10T20:51:33.982Z,101864.45
2018-07-10T20:55:08.455Z,101868.02
2018-07-10T20:58:05.654Z,101868.02
2018-07-10T21:00:42.022Z,101864.41
2018-07-10T21:03:24.462Z,101863.22
2018-07-10T21:05:55.231Z,101860.11
2018-07-10T21:08:45.308Z,101861.63
2018-07-10T21:11:20.309Z,101854.84
2018-07-10T21:13:55.084Z,101859.11
2018-07-10T21:16:31.240Z,101861.35
2018-07-10T21:19:18.334Z,101859.03
2018-07-10T21:23:10.843Z,101851.73
2018-07-10T21:26:48.494Z,101850.11
2018-07-10T21:30:32.317Z,101842.86
2018-07-10T21:33:17.417Z,101849.16
2018-07-10T21:35:51.188Z,101850.32
2018-07-10T21:40:43.774Z,101862.56
2018-07-10T21:43:17.367Z,101862.09
2018-07-10T21:47:03.244Z,101867.06
2018-07-10T21:49:50.330Z,101869.27
2018-07-10T21:52:19.702Z,101876.45
2018-07-10T21:54:48.487Z,101870.44
2018-07-10T21:57:18.687Z,101878.25
2018-07-10T21:59:56.662Z,101875.00
2018-07-10T22:02:25.399Z,101869.37
2018-07-10T22:04:56.944Z,101877.47
2018-07-10T22:07:29.212Z,101871.03
2018-07-10T22:10:08.021Z,101873.26
2018-07-10T22:12:46.141Z,101877.09
2018-07-10T22:15:15.320Z,101876.23
2018-07-10T22:17:44.065Z,101869.06
2018-07-10T22:20:12.992Z,101878.19
2018-07-10T22:22:42.051Z,101874.34
2018-07-10T22:25:10.973Z,101882.64
2018-07-10T22:27:42.061Z,101880.57
2018-07-10T22:30:21.152Z,101884.63
2018-07-10T22:33:01.710Z,101887.28
2018-07-10T22:35:30.753Z,101885.77
2018-07-10T22:38:00.119Z,101884.98
2018-07-10T22:40:28.859Z,101886.56
2018-07-10T22:42:58.166Z,101879.70
2018-07-10T22:45:33.206Z,101879.91
2018-07-10T22:48:02.715Z,101888.82
2018-07-10T22:50:31.679Z,101889.61
2018-07-10T22:53:01.686Z,101892.08
2018-07-10T22:55:32.513Z,101885.86
2018-07-10T22:58:06.511Z,101883.38
2018-07-10T23:00:37.208Z,101886.12
2018-07-10T23:03:22.094Z,101884.16
2018-07-10T23:05:51.954Z,101889.09
2018-07-10T23:08:33.293Z,101890.54
2018-07-10T23:11:04.405Z,101889.70
2018-07-10T23:13:36.961Z,101889.97
2018-07-10T23:16:06.404Z,101888.53
2018-07-10T23:18:35.395Z,101884.03
2018-07-10T23:21:05.222Z,101888.46
2018-07-10T23:23:34.485Z,101895.57
2018-07-10T23:26:03.471Z,101894.73
2018-07-10T23:28:32.975Z,101894.53
2018-07-10T23:31:03.796Z,101893.39
2018-07-10T23:33:33.130Z,101884.47
2018-07-10T23:36:02.255Z,101872.47
2018-07-10T23:38:39.109Z,101871.09
2018-07-10T23:41:21.597Z,101869.12
2018-07-10T23:43:50.985Z,101876.75
2018-07-10T23:46:30.507Z,101869.28
2018-07-10T23:49:12.439Z,101871.70
2018-07-10T23:51:57.988Z,101868.23
2018-07-10T23:54:27.326Z,101863.05
2018-07-10T23:56:56.250Z,101862.38
2018-07-10T23:59:25.217Z,101861.39
